Time;durP1;ratioP1;P1;durP2;ratioP2;P2;SDS_P1;SDS_P2;PMS_P1;PMS_P2;Temp;Humidity;BMP_temperature;BMP_pressure;BME280_temperature;BME280_humidity;BME280_pressure;Samples;Min_cycle;Max_cycle;Signal;HPM_P1;HPM_P2
2022/07/27 00:04:48;;;;;;;2.28;0.95;;;23.30;57.30;;;;;;10389241;28;20049;-52
2022/07/27 00:09:48;;;;;;;2.42;1.27;;;23.30;57.20;;;;;;10400086;28;20033;-53
2022/07/27 00:14:49;;;;;;;1.52;0.77;;;23.30;57.10;;;;;;10390227;28;20034;-52
2022/07/27 00:19:50;;;;;;;1.58;0.77;;;23.30;57.10;;;;;;10370112;28;20046;-53
2022/07/27 00:24:51;;;;;;;2.83;1.05;;;23.30;57.20;;;;;;10398643;28;20036;-52
2022/07/27 00:29:51;;;;;;;4.13;0.90;;;23.30;57.10;;;;;;10398883;28;20044;-52
2022/07/27 00:34:52;;;;;;;2.47;0.77;;;23.30;57.10;;;;;;10410888;28;20041;-54
2022/07/27 00:39:55;;;;;;;2.03;1.23;;;23.30;57.00;;;;;;10393947;28;20029;-52
2022/07/27 00:44:57;;;;;;;1.42;0.65;;;23.30;57.00;;;;;;10408602;28;20125;-53
2022/07/27 00:49:59;;;;;;;2.30;0.70;;;23.30;57.10;;;;;;10392756;28;20056;-51
2022/07/27 00:55:00;;;;;;;1.27;1.05;;;23.20;56.90;;;;;;10404036;28;20041;-52
2022/07/27 01:00:01;;;;;;;1.60;0.98;;;23.20;56.80;;;;;;10388051;28;20087;-53
2022/07/27 01:05:02;;;;;;;2.10;0.82;;;23.20;56.80;;;;;;10395844;28;20026;-52
2022/07/27 01:10:03;;;;;;;2.35;1.10;;;23.20;56.70;;;;;;10395448;28;20167;-53
2022/07/27 01:15:04;;;;;;;1.92;0.98;;;23.20;56.70;;;;;;10395921;28;20089;-53
2022/07/27 01:20:06;;;;;;;1.33;0.80;;;23.20;56.70;;;;;;10410005;28;20408;-52
2022/07/27 01:25:08;;;;;;;1.40;0.70;;;23.20;56.60;;;;;;10398195;28;20095;-52
2022/07/27 01:30:25;;;;;;;0.90;0.63;;;23.20;56.60;;;;;;10383631;28;20372;-53
2022/07/27 01:35:26;;;;;;;1.90;0.88;;;23.10;56.50;;;;;;10402173;28;20543;-53
2022/07/27 01:40:27;;;;;;;1.58;0.90;;;23.10;56.50;;;;;;10408418;28;20037;-53
2022/07/27 01:45:28;;;;;;;1.25;0.70;;;23.10;56.50;;;;;;10379871;28;20037;-53
2022/07/27 01:50:28;;;;;;;2.17;0.70;;;23.10;56.50;;;;;;10366464;28;20725;-52
2022/07/27 01:55:30;;;;;;;0.93;0.60;;;23.10;56.40;;;;;;10367975;28;20054;-52
2022/07/27 02:00:32;;;;;;;0.73;0.60;;;23.10;56.50;;;;;;10367152;28;20473;-51
2022/07/27 02:05:34;;;;;;;1.58;0.98;;;23.10;56.40;;;;;;10377052;28;20052;-52
2022/07/27 02:10:36;;;;;;;1.05;0.70;;;23.10;56.40;;;;;;10369644;28;20029;-52
2022/07/27 02:15:37;;;;;;;1.10;0.63;;;23.00;56.30;;;;;;10366363;28;20065;-52
2022/07/27 02:20:41;;;;;;;1.40;0.60;;;23.00;56.30;;;;;;10384761;28;20030;-52
2022/07/27 02:25:41;;;;;;;1.90;1.23;;;23.00;56.20;;;;;;10370843;28;20034;-53
2022/07/27 02:30:42;;;;;;;1.45;0.90;;;23.00;56.30;;;;;;10381235;28;20030;-53
2022/07/27 02:35:43;;;;;;;2.13;1.00;;;23.00;56.10;;;;;;10367429;28;20034;-53
2022/07/27 02:40:44;;;;;;;1.42;0.52;;;23.00;56.10;;;;;;10399903;28;20493;-53
2022/07/27 02:45:44;;;;;;;1.67;0.60;;;23.00;56.20;;;;;;10395444;28;20457;-53
2022/07/27 02:50:45;;;;;;;1.23;0.60;;;23.00;56.20;;;;;;10384444;28;20037;-52
2022/07/27 02:55:46;;;;;;;1.98;0.63;;;23.00;56.10;;;;;;10367416;28;20040;-53
2022/07/27 03:00:47;;;;;;;1.40;0.80;;;23.00;56.00;;;;;;10391511;28;20045;-52
2022/07/27 03:05:48;;;;;;;1.42;0.90;;;23.00;56.00;;;;;;10368599;28;20041;-53
2022/07/27 03:10:49;;;;;;;1.20;0.75;;;22.90;56.00;;;;;;10366422;28;20655;-53
2022/07/27 03:15:50;;;;;;;1.85;0.93;;;22.90;55.90;;;;;;10377249;28;20067;-53
2022/07/27 03:20:50;;;;;;;1.85;0.90;;;22.90;55.90;;;;;;10388255;28;20152;-53
2022/07/27 03:25:51;;;;;;;1.25;0.70;;;22.90;55.80;;;;;;10377227;28;20041;-52
2022/07/27 03:30:52;;;;;;;1.60;0.90;;;22.90;55.80;;;;;;10388168;28;20091;-52
2022/07/27 03:35:53;;;;;;;1.40;0.90;;;22.90;55.90;;;;;;10384618;28;20033;-53
2022/07/27 03:40:53;;;;;;;1.67;0.70;;;22.90;55.90;;;;;;10385302;28;20125;-53
2022/07/27 03:45:54;;;;;;;3.03;1.08;;;22.90;55.70;;;;;;10389548;28;20030;-53
2022/07/27 03:50:55;;;;;;;1.25;0.63;;;22.80;55.70;;;;;;10370696;28;20176;-52
2022/07/27 03:55:56;;;;;;;2.60;0.80;;;22.90;55.70;;;;;;10371446;28;20030;-53
2022/07/27 04:00:56;;;;;;;1.33;0.70;;;22.80;55.60;;;;;;10385547;28;20109;-53
2022/07/27 04:05:57;;;;;;;1.50;0.80;;;22.80;55.70;;;;;;10391953;28;20036;-52
2022/07/27 04:10:58;;;;;;;2.03;0.88;;;22.80;55.60;;;;;;10382376;28;20412;-52
2022/07/27 04:15:59;;;;;;;2.15;1.05;;;22.80;56.60;;;;;;10384889;28;20411;-53
2022/07/27 04:21:02;;;;;;;1.10;0.73;;;22.80;56.50;;;;;;10388180;28;20048;-54
2022/07/27 04:26:02;;;;;;;2.60;0.73;;;22.80;57.00;;;;;;10367188;28;20084;-55
2022/07/27 04:31:03;;;;;;;4.78;1.48;;;22.80;56.80;;;;;;10369346;28;20535;-54
2022/07/27 04:36:07;;;;;;;2.63;0.95;;;22.80;56.60;;;;;;10386326;28;20037;-53
2022/07/27 04:41:07;;;;;;;1.42;0.73;;;22.80;56.90;;;;;;10381377;28;20036;-53
2022/07/27 04:46:08;;;;;;;2.75;1.10;;;22.80;56.80;;;;;;10382953;28;20037;-54
2022/07/27 04:51:13;;;;;;;2.47;0.88;;;22.80;56.80;;;;;;10383884;28;20029;-53
2022/07/27 04:56:14;;;;;;;2.00;0.80;;;22.70;56.40;;;;;;10382799;28;20144;-53
2022/07/27 05:01:14;;;;;;;4.90;1.70;;;22.80;56.40;;;;;;10371002;28;20150;-53
2022/07/27 05:06:16;;;;;;;2.80;0.75;;;22.70;56.20;;;;;;10402003;28;20108;-52
2022/07/27 05:11:16;;;;;;;2.10;0.85;;;22.70;56.10;;;;;;10402237;28;20484;-51
2022/07/27 05:16:17;;;;;;;2.10;0.75;;;22.70;56.10;;;;;;10404706;28;20044;-54
2022/07/27 05:21:18;;;;;;;2.53;0.95;;;22.70;56.10;;;;;;10395170;28;20037;-56
2022/07/27 05:26:21;;;;;;;2.47;0.80;;;22.70;57.10;;;;;;10375990;28;20030;-55
2022/07/27 05:31:21;;;;;;;3.10;0.82;;;22.70;57.30;;;;;;10388008;28;20038;-54
2022/07/27 05:36:22;;;;;;;3.53;1.20;;;22.70;57.30;;;;;;10368662;28;20109;-54
2022/07/27 05:41:25;;;;;;;2.30;0.90;;;22.70;57.90;;;;;;10407424;28;20053;-57
2022/07/27 05:46:26;;;;;;;6.55;0.98;;;22.80;58.00;;;;;;10393305;28;20444;-56
2022/07/27 05:51:27;;;;;;;5.22;1.30;;;22.80;58.00;;;;;;10371225;28;20129;-56
2022/07/27 05:56:28;;;;;;;15.98;1.67;;;22.70;58.10;;;;;;10392849;28;20040;-55
2022/07/27 06:01:28;;;;;;;8.55;1.70;;;22.80;57.80;;;;;;10377162;28;20038;-54
2022/07/27 06:11:49;;;;;;;11.68;2.20;;;22.70;58.50;;;;;;10386053;28;20034;-55
2022/07/27 06:16:50;;;;;;;12.07;2.20;;;22.70;58.50;;;;;;10396777;28;20033;-55
2022/07/27 06:21:50;;;;;;;13.23;2.45;;;22.70;58.30;;;;;;10374477;28;20033;-56
2022/07/27 06:26:51;;;;;;;11.85;2.05;;;22.70;58.50;;;;;;10404785;28;20027;-55
2022/07/27 06:31:52;;;;;;;33.33;3.83;;;22.70;58.40;;;;;;10382188;28;20038;-54
2022/07/27 06:36:52;;;;;;;12.20;3.30;;;22.70;58.80;;;;;;10369433;28;20121;-54
2022/07/27 06:41:53;;;;;;;13.18;2.75;;;22.70;58.90;;;;;;10375320;28;20048;-55
2022/07/27 06:46:54;;;;;;;13.50;2.38;;;22.70;59.00;;;;;;10392299;28;20584;-54
2022/07/27 06:51:54;;;;;;;15.00;3.83;;;22.70;59.10;;;;;;10394503;28;20458;-54
2022/07/27 06:56:55;;;;;;;8.95;2.33;;;22.70;59.50;;;;;;10390389;28;20564;-54
2022/07/27 07:01:56;;;;;;;25.77;3.90;;;22.70;59.30;;;;;;10387775;28;20120;-55
2022/07/27 07:06:59;;;;;;;17.58;4.07;;;22.70;59.50;;;;;;10383601;28;20101;-53
2022/07/27 07:12:01;;;;;;;22.83;2.85;;;22.70;59.10;;;;;;10387308;28;20116;-52
2022/07/27 07:17:01;;;;;;;29.23;4.07;;;22.70;59.00;;;;;;10389930;28;20044;-53
2022/07/27 07:22:02;;;;;;;10.65;1.90;;;22.70;58.90;;;;;;10381198;28;20036;-53
2022/07/27 07:27:03;;;;;;;27.77;4.60;;;22.70;59.20;;;;;;10394504;28;20495;-51
2022/07/27 07:32:04;;;;;;;15.40;3.08;;;22.70;59.40;;;;;;10394106;28;20040;-51
2022/07/27 07:37:05;;;;;;;25.58;3.33;;;22.70;59.50;;;;;;10390348;28;20030;-53
2022/07/27 07:42:06;;;;;;;13.55;2.78;;;22.70;59.70;;;;;;10391163;28;20080;-50
2022/07/27 07:47:08;;;;;;;13.00;2.90;;;22.70;59.60;;;;;;10375185;28;20432;-53
2022/07/27 07:52:09;;;;;;;16.85;3.45;;;22.70;59.80;;;;;;10387818;28;20121;-53
2022/07/27 07:57:10;;;;;;;13.70;2.42;;;22.70;60.00;;;;;;10391176;28;20691;-52
2022/07/27 08:02:10;;;;;;;14.93;2.83;;;22.70;60.20;;;;;;10387190;28;20048;-55
2022/07/27 08:07:11;;;;;;;24.10;4.07;;;22.70;59.40;;;;;;10385827;28;20032;-53
2022/07/27 08:12:12;;;;;;;14.75;2.20;;;22.80;59.50;;;;;;10410143;28;20163;-55
2022/07/27 08:17:12;;;;;;;15.07;3.58;;;22.70;57.80;;;;;;10373013;28;20033;-50
2022/07/27 08:22:13;;;;;;;15.90;2.63;;;22.70;57.10;;;;;;10383675;28;20384;-52
2022/07/27 08:27:14;;;;;;;11.88;2.60;;;22.70;56.30;;;;;;10394062;28;20030;-48
2022/07/27 08:32:14;;;;;;;15.52;2.58;;;22.70;55.80;;;;;;10386198;28;20033;-53
2022/07/27 08:37:15;;;;;;;8.90;1.67;;;22.60;55.40;;;;;;10394904;28;20036;-52
2022/07/27 08:42:17;;;;;;;4.63;1.08;;;22.70;55.70;;;;;;10379584;28;20520;-49
2022/07/27 08:47:20;;;;;;;6.15;1.75;;;22.60;54.10;;;;;;10400430;28;20108;-46
2022/07/27 08:52:21;;;;;;;4.10;1.50;;;22.70;54.60;;;;;;10378743;28;20040;-48
2022/07/27 08:57:22;;;;;;;2.88;1.17;;;22.60;53.50;;;;;;10405431;28;20164;-50
2022/07/27 09:02:23;;;;;;;5.28;1.20;;;22.60;52.80;;;;;;10370550;28;20075;-54
2022/07/27 09:07:30;;;;;;;10.88;2.30;;;22.60;52.50;;;;;;10383806;28;20087;-51
2022/07/27 09:12:32;;;;;;;4.40;1.90;;;22.70;52.40;;;;;;10369770;28;20374;-54
2022/07/27 09:17:33;;;;;;;3.70;1.38;;;22.60;52.50;;;;;;10403818;28;20088;-52
2022/07/27 09:22:38;;;;;;;6.05;1.40;;;22.60;52.90;;;;;;10390932;28;20025;-52
2022/07/27 09:27:39;;;;;;;6.75;1.67;;;22.50;52.90;;;;;;10373846;28;20086;-53
2022/07/27 09:33:03;;;;;;;4.15;1.20;;;22.50;53.30;;;;;;10377245;28;20091;-53
2022/07/27 09:38:33;;;;;;;6.20;1.40;;;22.50;53.40;;;;;;10372182;28;20564;-53
2022/07/27 09:43:55;;;;;;;4.90;1.92;;;22.50;53.90;;;;;;10393473;28;20462;-55
2022/07/27 09:48:56;;;;;;;3.25;1.10;;;22.60;53.60;;;;;;10377296;28;20029;-53
2022/07/27 09:54:05;;;;;;;3.53;1.10;;;22.60;53.60;;;;;;10366401;28;20030;-53
2022/07/27 09:59:05;;;;;;;;;;;22.60;53.50;;;;;;10365886;28;20034;-53
2022/07/27 10:04:07;;;;;;;2.80;1.17;;;22.60;53.70;;;;;;10366940;28;19921;-51
2022/07/27 10:09:08;;;;;;;3.85;0.90;;;22.60;54.10;;;;;;10365447;28;20457;-51
2022/07/27 10:14:09;;;;;;;3.53;1.05;;;22.60;54.20;;;;;;10384454;28;20037;-54
2022/07/27 10:19:15;;;;;;;4.43;1.85;;;22.60;54.30;;;;;;10365788;28;20049;-53
2022/07/27 10:24:30;;;;;;;1.85;0.90;;;22.50;54.40;;;;;;10366158;28;20037;-54
2022/07/27 10:29:31;;;;;;;3.72;1.23;;;22.50;54.60;;;;;;10401908;28;20026;-51
2022/07/27 10:34:41;;;;;;;6.30;1.17;;;22.60;54.70;;;;;;10395914;28;20036;-55
2022/07/27 10:40:32;;;;;;;5.60;1.63;;;22.50;54.50;;;;;;10392128;28;20032;-53
2022/07/27 10:45:15;;;;;;;4.07;1.48;;;22.60;52.90;;;;;;10375320;28;20696;-53
2022/07/27 10:50:16;;;;;;;3.25;1.20;;;22.60;51.50;;;;;;10375025;28;20526;-54
2022/07/27 10:55:29;;;;;;;4.22;1.58;;;22.60;51.00;;;;;;10407535;28;20133;-52
2022/07/27 11:01:04;;;;;;;5.10;1.40;;;22.70;51.20;;;;;;10415313;28;20033;-53
2022/07/27 11:06:26;;;;;;;3.03;1.10;;;22.70;50.70;;;;;;10389200;28;20381;-52
2022/07/27 11:11:28;;;;;;;3.13;1.30;;;22.60;50.70;;;;;;10403438;28;20041;-52
2022/07/27 11:16:29;;;;;;;3.55;1.55;;;22.60;50.50;;;;;;10386678;28;20107;-55
2022/07/27 11:21:36;;;;;;;3.42;1.58;;;22.50;49.80;;;;;;10390689;28;20444;-49
2022/07/27 11:26:44;;;;;;;11.57;1.52;;;22.50;49.40;;;;;;10378697;28;20540;-52
2022/07/27 11:31:50;;;;;;;5.72;1.48;;;22.50;48.90;;;;;;10399977;28;20384;-51
2022/07/27 11:36:50;;;;;;;3.67;1.02;;;22.50;48.30;;;;;;10409746;28;20033;-54
2022/07/27 11:42:01;;;;;;;5.38;1.38;;;22.60;47.90;;;;;;10386579;28;20041;-54
2022/07/27 11:47:01;;;;;;;3.53;1.02;;;22.60;47.60;;;;;;10376374;28;20048;-53
2022/07/27 11:52:07;;;;;;;3.42;0.88;;;22.60;47.20;;;;;;10395297;28;20514;-53
2022/07/27 11:57:15;;;;;;;3.92;1.05;;;22.60;47.30;;;;;;10391246;28;20102;-55
2022/07/27 12:02:21;;;;;;;7.95;1.40;;;22.60;47.50;;;;;;10402619;28;20033;-56
2022/07/27 12:07:29;;;;;;;3.10;0.90;;;22.50;48.00;;;;;;10398055;28;20026;-54
2022/07/27 12:12:32;;;;;;;2.70;1.05;;;22.60;47.80;;;;;;10390245;28;20033;-54
2022/07/27 12:17:37;;;;;;;3.95;0.90;;;22.50;47.50;;;;;;10385938;28;20033;-54
2022/07/27 12:22:46;;;;;;;3.92;0.70;;;22.50;47.40;;;;;;10381648;28;20029;-55
2022/07/27 12:28:07;;;;;;;5.07;1.17;;;22.50;48.00;;;;;;10397312;28;20036;-54
2022/07/27 12:33:35;;;;;;;2.90;1.25;;;22.50;47.90;;;;;;10410876;28;20029;-54
2022/07/27 12:38:49;;;;;;;4.43;1.30;;;22.50;48.20;;;;;;10389906;28;20496;-56
2022/07/27 12:44:12;;;;;;;12.77;1.55;;;22.50;48.30;;;;;;10369130;28;20065;-55
2022/07/27 12:49:16;;;;;;;6.57;1.33;;;22.50;48.10;;;;;;10405983;28;20468;-54
2022/07/27 12:54:17;;;;;;;5.88;1.33;;;22.50;47.90;;;;;;10383257;28;20041;-54
2022/07/27 12:59:22;;;;;;;5.70;1.17;;;22.60;48.10;;;;;;10377273;28;20088;-53
2022/07/27 13:04:22;;;;;;;3.75;0.93;;;22.60;46.80;;;;;;10383626;28;20048;-55
2022/07/27 13:09:23;;;;;;;4.50;1.25;;;22.60;46.90;;;;;;10381508;28;20535;-52
2022/07/27 13:14:24;;;;;;;6.20;1.00;;;22.60;47.50;;;;;;10397654;28;20055;-56
2022/07/27 13:19:24;;;;;;;3.25;0.98;;;22.60;47.60;;;;;;10409864;28;20021;-53
2022/07/27 13:24:25;;;;;;;3.08;1.05;;;22.60;47.80;;;;;;10404581;28;20033;-53
2022/07/27 13:29:27;;;;;;;2.58;1.02;;;22.50;48.10;;;;;;10401232;28;20499;-55
2022/07/27 13:34:27;;;;;;;5.85;1.10;;;22.50;48.60;;;;;;10368364;28;20069;-53
2022/07/27 13:39:28;;;;;;;3.17;1.30;;;22.40;49.10;;;;;;10396271;28;20045;-52
2022/07/27 13:44:29;;;;;;;3.13;1.10;;;22.50;49.60;;;;;;10368486;28;20046;-52
2022/07/27 13:49:30;;;;;;;4.53;1.73;;;22.50;49.80;;;;;;10382023;28;20018;-49
2022/07/27 13:54:30;;;;;;;1.70;0.80;;;22.50;50.00;;;;;;10369582;28;20091;-51
2022/07/27 13:59:31;;;;;;;1.65;0.88;;;22.50;50.20;;;;;;10390573;28;20549;-49
2022/07/27 14:04:34;;;;;;;2.60;1.30;;;22.50;50.30;;;;;;10408341;28;20402;-53
2022/07/27 14:14:54;;;;;;;2.67;1.08;;;22.50;50.90;;;;;;10384078;28;20033;-53
2022/07/27 14:19:54;;;;;;;3.22;2.08;;;22.40;50.80;;;;;;10389607;28;20406;-49
2022/07/27 14:24:55;;;;;;;3.05;1.48;;;22.40;51.10;;;;;;10390644;28;20432;-52
2022/07/27 14:29:56;;;;;;;2.90;1.08;;;22.40;51.40;;;;;;10397970;28;20587;-51
2022/07/27 14:34:57;;;;;;;2.60;1.00;;;22.40;51.60;;;;;;10366257;28;20121;-52
2022/07/27 14:39:57;;;;;;;2.17;0.77;;;22.40;51.60;;;;;;10365611;28;20034;-52
2022/07/27 14:44:58;;;;;;;2.88;1.00;;;22.40;51.80;;;;;;10367326;28;20525;-52
2022/07/27 14:49:59;;;;;;;2.63;0.80;;;22.40;51.90;;;;;;10366889;28;20152;-52
2022/07/27 14:55:00;;;;;;;2.80;1.58;;;22.40;52.00;;;;;;10382450;28;20045;-53
2022/07/27 15:00:13;;;;;;;2.15;0.90;;;22.40;52.00;;;;;;10393056;28;20037;-52
2022/07/27 15:05:13;;;;;;;1.50;0.70;;;22.40;52.20;;;;;;10378545;28;20030;-53
2022/07/27 15:10:14;;;;;;;1.38;0.85;;;22.50;52.40;;;;;;10370829;28;20033;-52
2022/07/27 15:15:15;;;;;;;3.38;1.52;;;22.50;52.50;;;;;;10374058;28;20049;-52
2022/07/27 15:20:15;;;;;;;2.42;0.80;;;22.50;51.90;;;;;;10386964;28;20030;-49
2022/07/27 15:25:17;;;;;;;3.97;1.33;;;22.40;52.60;;;;;;10395331;28;20068;-51
2022/07/27 15:30:17;;;;;;;2.97;0.70;;;22.40;52.90;;;;;;10393156;28;20120;-53
2022/07/27 15:35:18;;;;;;;10.40;1.50;;;22.40;52.90;;;;;;10383676;28;20116;-52
2022/07/27 15:40:37;;;;;;;9.32;1.85;;;22.40;53.30;;;;;;10386956;28;20038;-53
2022/07/27 15:45:41;;;;;;;6.85;1.48;;;22.40;53.40;;;;;;10393747;28;20037;-53
2022/07/27 15:50:47;;;;;;;3.80;1.10;;;22.50;53.50;;;;;;10389096;28;20084;-53
2022/07/27 15:55:48;;;;;;;8.40;3.65;;;22.40;53.60;;;;;;10371630;28;20037;-53
2022/07/27 16:00:53;;;;;;;5.93;3.28;;;22.50;55.40;;;;;;10371586;28;20058;-54
2022/07/27 16:05:54;;;;;;;7.05;4.03;;;22.70;58.90;;;;;;10401368;28;20250;-53
2022/07/27 16:10:55;;;;;;;4.00;2.60;;;22.80;61.00;;;;;;10386218;28;20037;-52
2022/07/27 16:21:15;;;;;;;6.15;2.30;;;22.70;61.30;;;;;;10387506;28;20037;-59
2022/07/27 16:26:16;;;;;;;13.13;2.28;;;22.80;60.70;;;;;;10410385;28;20381;-56
2022/07/27 16:31:19;;;;;;;2.83;1.00;;;22.80;59.40;;;;;;10395285;28;20038;-57
2022/07/27 16:36:20;;;;;;;6.32;1.30;;;22.80;59.20;;;;;;10369908;28;20022;-56
2022/07/27 16:41:22;;;;;;;4.20;1.30;;;22.80;58.70;;;;;;10390351;28;20104;-57
2022/07/27 16:46:22;;;;;;;4.25;1.33;;;22.80;58.60;;;;;;10383423;28;20083;-55
2022/07/27 16:51:23;;;;;;;6.70;1.30;;;22.80;58.30;;;;;;10404755;28;20104;-50
2022/07/27 16:56:24;;;;;;;9.45;1.55;;;22.80;58.20;;;;;;10370221;28;20396;-54
2022/07/27 17:01:25;;;;;;;15.63;2.42;;;22.70;57.70;;;;;;10387451;28;20036;-55
2022/07/27 17:06:26;;;;;;;16.25;2.10;;;22.70;57.30;;;;;;10394126;28;20025;-53
2022/07/27 17:11:26;;;;;;;6.90;1.60;;;22.70;56.80;;;;;;10394715;28;20033;-53
2022/07/27 17:16:27;;;;;;;10.82;1.83;;;22.70;57.60;;;;;;10410168;28;20033;-54
2022/07/27 17:21:28;;;;;;;9.35;2.75;;;22.70;57.10;;;;;;10405853;28;20375;-53
2022/07/27 17:26:29;;;;;;;5.05;1.58;;;22.70;56.80;;;;;;10382460;28;20034;-54
2022/07/27 17:31:30;;;;;;;12.10;1.50;;;22.70;56.80;;;;;;10392273;28;20030;-53
2022/07/27 17:36:30;;;;;;;5.22;1.08;;;22.70;56.90;;;;;;10368705;28;20083;-53
2022/07/27 17:41:31;;;;;;;4.55;1.48;;;22.70;57.00;;;;;;10374907;28;20061;-54
2022/07/27 17:46:32;;;;;;;3.55;0.98;;;22.70;56.90;;;;;;10386124;28;20517;-54
2022/07/27 17:51:33;;;;;;;6.43;1.20;;;22.60;56.90;;;;;;10386345;28;20087;-53
2022/07/27 17:56:34;;;;;;;6.47;1.80;;;22.70;57.00;;;;;;10395324;28;20082;-53
2022/07/27 18:01:35;;;;;;;7.20;1.60;;;22.70;57.40;;;;;;10407815;28;20064;-52
2022/07/27 18:06:36;;;;;;;3.67;1.40;;;22.70;57.20;;;;;;10394815;28;20116;-52
2022/07/27 18:11:37;;;;;;;7.55;1.60;;;22.60;57.30;;;;;;10368339;28;20404;-54
2022/07/27 18:16:37;;;;;;;7.82;2.35;;;22.70;57.80;;;;;;10384048;28;20064;-52
2022/07/27 18:21:38;;;;;;;9.10;2.55;;;22.70;57.60;;;;;;10386381;28;20376;-50
2022/07/27 18:26:39;;;;;;;10.20;1.52;;;22.70;57.90;;;;;;10376713;28;20041;-55
2022/07/27 18:31:40;;;;;;;6.35;1.10;;;22.70;57.80;;;;;;10399315;28;20606;-56
2022/07/27 18:36:41;;;;;;;4.00;1.60;;;22.70;57.80;;;;;;10401848;28;20062;-54
2022/07/27 18:41:41;;;;;;;5.75;1.25;;;22.70;57.90;;;;;;10388813;28;20194;-55
2022/07/27 18:46:42;;;;;;;4.20;1.65;;;22.70;57.60;;;;;;10405588;28;20029;-49
2022/07/27 18:51:43;;;;;;;6.10;1.50;;;22.70;57.90;;;;;;10400958;28;20350;-54
2022/07/27 18:56:43;;;;;;;4.68;1.25;;;22.70;57.50;;;;;;10391987;28;20541;-53
2022/07/27 19:01:44;;;;;;;3.20;1.42;;;22.70;57.50;;;;;;10398175;28;20025;-54
2022/07/27 19:06:45;;;;;;;3.30;1.10;;;22.70;57.80;;;;;;10391232;28;20018;-54
2022/07/27 19:11:46;;;;;;;3.92;1.20;;;22.70;58.00;;;;;;10388439;28;20482;-55
2022/07/27 19:16:47;;;;;;;3.47;1.10;;;22.70;58.00;;;;;;10390109;28;20030;-53
2022/07/27 19:21:48;;;;;;;5.13;1.20;;;22.70;58.20;;;;;;10394330;28;20043;-56
2022/07/27 19:26:49;;;;;;;3.67;1.33;;;22.70;58.20;;;;;;10375514;28;20026;-53
2022/07/27 19:31:49;;;;;;;3.38;1.00;;;22.70;58.30;;;;;;10389484;28;20036;-49
2022/07/27 19:36:50;;;;;;;7.55;1.55;;;22.70;58.50;;;;;;10393202;28;20041;-47
2022/07/27 19:41:51;;;;;;;4.40;1.20;;;22.70;58.50;;;;;;10392838;28;20030;-51
2022/07/27 19:46:53;;;;;;;2.20;1.40;;;22.70;58.80;;;;;;10404043;28;20033;-51
2022/07/27 19:51:53;;;;;;;5.30;1.75;;;22.60;58.90;;;;;;10392071;28;20036;-48
2022/07/27 19:56:54;;;;;;;3.28;1.30;;;22.70;59.40;;;;;;10392979;28;20026;-50
2022/07/27 20:01:55;;;;;;;4.35;1.30;;;22.70;58.70;;;;;;10385528;28;20034;-51
2022/07/27 20:06:56;;;;;;;5.20;0.95;;;22.70;58.60;;;;;;10375310;28;20028;-48
2022/07/27 20:11:56;;;;;;;2.30;0.80;;;22.70;58.50;;;;;;10387273;28;20481;-47
2022/07/27 20:16:57;;;;;;;2.83;1.00;;;22.60;58.50;;;;;;10389529;28;20728;-48
2022/07/27 20:21:59;;;;;;;3.80;1.17;;;22.60;58.50;;;;;;10388484;28;20468;-47
2022/07/27 20:27:00;;;;;;;2.90;1.20;;;22.60;58.50;;;;;;10386486;28;20080;-48
2022/07/27 20:32:01;;;;;;;2.38;0.90;;;22.60;58.50;;;;;;10382206;28;20075;-48
2022/07/27 20:37:02;;;;;;;2.47;0.88;;;22.60;58.50;;;;;;10382468;28;20476;-47
2022/07/27 20:42:02;;;;;;;2.30;1.17;;;22.60;58.40;;;;;;10410995;28;20091;-47
2022/07/27 20:47:05;;;;;;;1.60;0.90;;;22.60;58.20;;;;;;10390425;28;20036;-49
2022/07/27 20:52:06;;;;;;;1.85;1.13;;;22.60;58.00;;;;;;10396228;28;20062;-47
2022/07/27 20:57:07;;;;;;;4.35;0.88;;;22.60;57.80;;;;;;10400316;28;20428;-48
2022/07/27 21:02:08;;;;;;;2.85;1.08;;;22.60;57.80;;;;;;10369272;28;20033;-51
2022/07/27 21:07:09;;;;;;;2.42;0.85;;;22.60;57.60;;;;;;10373205;28;20408;-49
2022/07/27 21:12:09;;;;;;;3.80;1.00;;;22.60;57.60;;;;;;10408541;28;20029;-51
2022/07/27 21:17:10;;;;;;;1.45;0.73;;;22.60;57.40;;;;;;10367537;28;20424;-48
2022/07/27 21:22:11;;;;;;;2.63;0.80;;;22.50;57.30;;;;;;10385788;28;20029;-48
2022/07/27 21:27:11;;;;;;;1.05;0.60;;;22.50;57.20;;;;;;10409174;28;20040;-47
2022/07/27 21:32:12;;;;;;;1.38;1.00;;;22.60;57.10;;;;;;10387203;28;20143;-46
2022/07/27 21:37:13;;;;;;;2.63;1.00;;;22.50;56.90;;;;;;10368922;28;20080;-48
2022/07/27 21:42:14;;;;;;;3.03;1.05;;;22.50;56.90;;;;;;10368793;28;20539;-47
2022/07/27 21:47:14;;;;;;;1.65;0.60;;;22.50;56.80;;;;;;10379864;28;20121;-47
2022/07/27 21:52:15;;;;;;;2.88;0.95;;;22.50;56.80;;;;;;10368607;28;20112;-47
2022/07/27 21:57:16;;;;;;;1.55;0.82;;;22.50;56.60;;;;;;10369036;28;20491;-48
2022/07/27 22:02:16;;;;;;;1.30;0.85;;;22.50;56.60;;;;;;10368161;28;20057;-48
2022/07/27 22:07:17;;;;;;;3.83;0.85;;;22.50;56.50;;;;;;10398477;28;20500;-48
2022/07/27 22:12:18;;;;;;;2.00;1.20;;;22.50;56.50;;;;;;10393679;28;20053;-48
2022/07/27 22:17:19;;;;;;;1.60;0.80;;;22.50;56.40;;;;;;10367535;28;20037;-50
2022/07/27 22:22:20;;;;;;;2.10;1.10;;;22.50;56.30;;;;;;10386881;28;20887;-50
2022/07/27 22:27:20;;;;;;;1.15;0.80;;;22.50;56.20;;;;;;10367552;28;20501;-49
2022/07/27 22:32:21;;;;;;;1.40;0.80;;;22.50;56.20;;;;;;10382507;28;20562;-49
2022/07/27 22:37:22;;;;;;;1.42;0.82;;;22.40;56.10;;;;;;10366254;28;20137;-49
2022/07/27 22:42:23;;;;;;;1.98;1.10;;;22.50;56.10;;;;;;10367164;28;20385;-47
2022/07/27 22:47:24;;;;;;;2.15;0.95;;;22.40;56.00;;;;;;10366650;28;20129;-49
2022/07/27 22:52:25;;;;;;;1.25;0.80;;;22.40;56.00;;;;;;10366300;28;20041;-48
2022/07/27 22:57:26;;;;;;;1.98;0.82;;;22.40;55.90;;;;;;10367522;28;20041;-47
2022/07/27 23:02:26;;;;;;;1.90;1.27;;;22.40;55.90;;;;;;10367123;28;20037;-47
2022/07/27 23:07:27;;;;;;;2.72;0.70;;;22.40;55.80;;;;;;10367156;28;20040;-47
2022/07/27 23:12:28;;;;;;;2.42;0.90;;;22.40;55.90;;;;;;10386589;28;20365;-48
2022/07/27 23:17:28;;;;;;;1.80;0.90;;;22.40;55.80;;;;;;10391112;28;20148;-50
2022/07/27 23:22:29;;;;;;;0.90;0.52;;;22.40;55.80;;;;;;10372642;28;20025;-47
2022/07/27 23:27:30;;;;;;;1.73;1.10;;;22.40;55.70;;;;;;10400251;28;20113;-48
2022/07/27 23:32:30;;;;;;;1.73;0.85;;;22.40;55.60;;;;;;10386854;28;20034;-50
2022/07/27 23:37:31;;;;;;;2.72;1.15;;;22.40;55.70;;;;;;10373536;28;20491;-50
2022/07/27 23:42:33;;;;;;;1.90;1.00;;;22.40;55.60;;;;;;10373043;28;20111;-50
2022/07/27 23:47:34;;;;;;;2.55;0.88;;;22.40;55.60;;;;;;10372958;28;20041;-47
2022/07/27 23:52:36;;;;;;;1.85;0.80;;;22.30;55.50;;;;;;10372666;28;20057;-47
2022/07/27 23:57:37;;;;;;;3.25;0.98;;;22.30;55.50;;;;;;10372947;28;20025;-48
